Aviation Digital Data Service (ADDS)

Output produced by METARs form (2029 UTC 20 August 2019)
found at http://www.aviationweather.gov/metar/data/
 
METAR text: KSMO 201951Z 23006KT 10SM CLR 24/18 A2994 RMK AO2 SLP135 T02390178
Conditions at: KSMO (SANTA MONICA , CA, US) observed 1951 UTC 20 August 2019
Temperature: 23.9°C (75°F)
Dewpoint: 17.8°C (64°F) [RH = 69%]
Pressure (altimeter): 29.94 inches Hg (1014.0 mb)
[Sea-level pressure: 1013.5 mb]
Winds: from the SW (230 degrees) at 7 MPH (6 knots; 3.1 m/s)
Visibility: 10 or more miles (16+ km)
Ceiling: at least 12,000 feet AGL
Clouds: sky clear below 12,000 feet AGL
Weather: no significant weather observed at this time

METAR text: KSMO 201851Z 22006KT 9SM CLR 23/18 A2995 RMK AO2 SLP141 T02280178
Conditions at: KSMO (SANTA MONICA , CA, US) observed 1851 UTC 20 August 2019
Temperature: 22.8°C (73°F)
Dewpoint: 17.8°C (64°F) [RH = 73%]
Pressure (altimeter): 29.95 inches Hg (1014.3 mb)
[Sea-level pressure: 1014.1 mb]
Winds: from the SW (220 degrees) at 7 MPH (6 knots; 3.1 m/s)
Visibility: 9 miles (14 km)
Ceiling: at least 12,000 feet AGL
Clouds: sky clear below 12,000 feet AGL
Weather: no significant weather observed at this time

METAR text: KSMO 201751Z 23005KT 10SM CLR 23/18 A2996 RMK AO2 SLP143 T02280178 10233 20172 53001
Conditions at: KSMO (SANTA MONICA , CA, US) observed 1751 UTC 20 August 2019
Temperature: 22.8°C (73°F)
Dewpoint: 17.8°C (64°F) [RH = 73%]
Pressure (altimeter): 29.96 inches Hg (1014.6 mb)
[Sea-level pressure: 1014.3 mb]
Winds: from the SW (230 degrees) at 6 MPH (5 knots; 2.6 m/s)
Visibility: 10 or more miles (16+ km)
Ceiling: at least 12,000 feet AGL
Clouds: sky clear below 12,000 feet AGL
Weather: no significant weather observed at this time

METAR text: KSMO 201651Z VRB04KT 10SM CLR 23/17 A2995 RMK AO2 SLP141 T02280172
Conditions at: KSMO (SANTA MONICA , CA, US) observed 1651 UTC 20 August 2019
Temperature: 22.8°C (73°F)
Dewpoint: 17.2°C (63°F) [RH = 71%]
Pressure (altimeter): 29.95 inches Hg (1014.3 mb)
[Sea-level pressure: 1014.1 mb]
Winds: variable direction winds at 5 MPH (4 knots; 2.1 m/s)
Visibility: 10 or more miles (16+ km)
Ceiling: at least 12,000 feet AGL
Clouds: sky clear below 12,000 feet AGL
Weather: no significant weather observed at this time

METAR text: KSMO 201551Z 00000KT 10SM CLR 21/17 A2995 RMK AO2 SLP141 T02110172
Conditions at: KSMO (SANTA MONICA , CA, US) observed 1551 UTC 20 August 2019
Temperature: 21.1°C (70°F)
Dewpoint: 17.2°C (63°F) [RH = 78%]
Pressure (altimeter): 29.95 inches Hg (1014.3 mb)
[Sea-level pressure: 1014.1 mb]
Winds: calm
Visibility: 10 or more miles (16+ km)
Ceiling: at least 12,000 feet AGL
Clouds: sky clear below 12,000 feet AGL
Weather: no significant weather observed at this time

METAR text: KSMO 201451Z 00000KT 10SM CLR 19/17 A2995 RMK AO2 SLP142 T01940172 53008
Conditions at: KSMO (SANTA MONICA , CA, US) observed 1451 UTC 20 August 2019
Temperature: 19.4°C (67°F)
Dewpoint: 17.2°C (63°F) [RH = 87%]
Pressure (altimeter): 29.95 inches Hg (1014.3 mb)
[Sea-level pressure: 1014.2 mb]
Winds: calm
Visibility: 10 or more miles (16+ km)
Ceiling: at least 12,000 feet AGL
Clouds: sky clear below 12,000 feet AGL
Weather: no significant weather observed at this time

METAR text: KSMO 201351Z 00000KT 10SM CLR 17/16 A2994 RMK AO2 SLP138 T01720156
Conditions at: KSMO (SANTA MONICA , CA, US) observed 1351 UTC 20 August 2019
Temperature: 17.2°C (63°F)
Dewpoint: 15.6°C (60°F) [RH = 90%]
Pressure (altimeter): 29.94 inches Hg (1014.0 mb)
[Sea-level pressure: 1013.8 mb]
Winds: calm
Visibility: 10 or more miles (16+ km)
Ceiling: at least 12,000 feet AGL
Clouds: sky clear below 12,000 feet AGL
Weather: no significant weather observed at this time

METAR text: KSMO 201251Z AUTO 00000KT 10SM CLR 17/16 A2994 RMK AO2 SLP136 T01720156
Conditions at: KSMO (SANTA MONICA , CA, US) observed 1251 UTC 20 August 2019
Temperature: 17.2°C (63°F)
Dewpoint: 15.6°C (60°F) [RH = 90%]
Pressure (altimeter): 29.94 inches Hg (1014.0 mb)
[Sea-level pressure: 1013.6 mb]
Winds: calm
Visibility: 10 or more miles (16+ km)
Ceiling: at least 12,000 feet AGL
Clouds: sky clear below 12,000 feet AGL
Weather: automated observation with no human augmentation;
there may or may not be significant weather present at this time

METAR text: KSMO 201151Z AUTO 00000KT 10SM CLR 17/16 A2993 RMK AO2 SLP134 T01720156 10183 20172 53006
Conditions at: KSMO (SANTA MONICA , CA, US) observed 1151 UTC 20 August 2019
Temperature: 17.2°C (63°F)
Dewpoint: 15.6°C (60°F) [RH = 90%]
Pressure (altimeter): 29.93 inches Hg (1013.6 mb)
[Sea-level pressure: 1013.4 mb]
Winds: calm
Visibility: 10 or more miles (16+ km)
Ceiling: at least 12,000 feet AGL
Clouds: sky clear below 12,000 feet AGL
Weather: automated observation with no human augmentation;
there may or may not be significant weather present at this time

METAR text: KSMO 201051Z AUTO 00000KT 10SM CLR 18/16 A2992 RMK AO2 SLP131 T01780161
Conditions at: KSMO (SANTA MONICA , CA, US) observed 1051 UTC 20 August 2019
Temperature: 17.8°C (64°F)
Dewpoint: 16.1°C (61°F) [RH = 90%]
Pressure (altimeter): 29.92 inches Hg (1013.3 mb)
[Sea-level pressure: 1013.1 mb]
Winds: calm
Visibility: 10 or more miles (16+ km)
Ceiling: at least 12,000 feet AGL
Clouds: sky clear below 12,000 feet AGL
Weather: automated observation with no human augmentation;
there may or may not be significant weather present at this time

METAR text: KSMO 200951Z AUTO 00000KT 10SM CLR 18/16 A2991 RMK AO2 SLP127 T01780161
Conditions at: KSMO (SANTA MONICA , CA, US) observed 0951 UTC 20 August 2019
Temperature: 17.8°C (64°F)
Dewpoint: 16.1°C (61°F) [RH = 90%]
Pressure (altimeter): 29.91 inches Hg (1013.0 mb)
[Sea-level pressure: 1012.7 mb]
Winds: calm
Visibility: 10 or more miles (16+ km)
Ceiling: at least 12,000 feet AGL
Clouds: sky clear below 12,000 feet AGL
Weather: automated observation with no human augmentation;
there may or may not be significant weather present at this time

METAR text: KSMO 200851Z AUTO 00000KT 10SM CLR 18/16 A2991 RMK AO2 SLP128 T01780161 55000
Conditions at: KSMO (SANTA MONICA , CA, US) observed 0851 UTC 20 August 2019
Temperature: 17.8°C (64°F)
Dewpoint: 16.1°C (61°F) [RH = 90%]
Pressure (altimeter): 29.91 inches Hg (1013.0 mb)
[Sea-level pressure: 1012.8 mb]
Winds: calm
Visibility: 10 or more miles (16+ km)
Ceiling: at least 12,000 feet AGL
Clouds: sky clear below 12,000 feet AGL
Weather: automated observation with no human augmentation;
there may or may not be significant weather present at this time

METAR text: KSMO 200751Z AUTO 07003KT 10SM CLR 18/17 A2991 RMK AO2 SLP127 T01780167 402390178
Conditions at: KSMO (SANTA MONICA , CA, US) observed 0751 UTC 20 August 2019
Temperature: 17.8°C (64°F)
Dewpoint: 16.7°C (62°F) [RH = 93%]
Pressure (altimeter): 29.91 inches Hg (1013.0 mb)
[Sea-level pressure: 1012.7 mb]
Winds: from the ENE (70 degrees) at 3 MPH (3 knots; 1.5 m/s)
Visibility: 10 or more miles (16+ km)
Ceiling: at least 12,000 feet AGL
Clouds: sky clear below 12,000 feet AGL
Weather: automated observation with no human augmentation;
there may or may not be significant weather present at this time

METAR text: KSMO 200651Z AUTO 00000KT 10SM CLR 18/17 A2991 RMK AO2 SLP128 T01830172
Conditions at: KSMO (SANTA MONICA , CA, US) observed 0651 UTC 20 August 2019
Temperature: 18.3°C (65°F)
Dewpoint: 17.2°C (63°F) [RH = 93%]
Pressure (altimeter): 29.91 inches Hg (1013.0 mb)
[Sea-level pressure: 1012.8 mb]
Winds: calm
Visibility: 10 or more miles (16+ km)
Ceiling: at least 12,000 feet AGL
Clouds: sky clear below 12,000 feet AGL
Weather: automated observation with no human augmentation;
there may or may not be significant weather present at this time

METAR text: KSMO 200551Z AUTO 00000KT 10SM CLR 18/17 A2991 RMK AO2 SLP128 T01830172 10217 20183 52006
Conditions at: KSMO (SANTA MONICA , CA, US) observed 0551 UTC 20 August 2019
Temperature: 18.3°C (65°F)
Dewpoint: 17.2°C (63°F) [RH = 93%]
Pressure (altimeter): 29.91 inches Hg (1013.0 mb)
[Sea-level pressure: 1012.8 mb]
Winds: calm
Visibility: 10 or more miles (16+ km)
Ceiling: at least 12,000 feet AGL
Clouds: sky clear below 12,000 feet AGL
Weather: automated observation with no human augmentation;
there may or may not be significant weather present at this time

METAR text: KSMO 200451Z AUTO 00000KT 10SM CLR 19/17 A2991 RMK AO2 SLP127 T01890172
Conditions at: KSMO (SANTA MONICA , CA, US) observed 0451 UTC 20 August 2019
Temperature: 18.9°C (66°F)
Dewpoint: 17.2°C (63°F) [RH = 90%]
Pressure (altimeter): 29.91 inches Hg (1013.0 mb)
[Sea-level pressure: 1012.7 mb]
Winds: calm
Visibility: 10 or more miles (16+ km)
Ceiling: at least 12,000 feet AGL
Clouds: sky clear below 12,000 feet AGL
Weather: automated observation with no human augmentation;
there may or may not be significant weather present at this time

METAR text: KSMO 200351Z AUTO 17004KT 10SM CLR 19/17 A2990 RMK AO2 SLP122 T01940172
Conditions at: KSMO (SANTA MONICA , CA, US) observed 0351 UTC 20 August 2019
Temperature: 19.4°C (67°F)
Dewpoint: 17.2°C (63°F) [RH = 87%]
Pressure (altimeter): 29.90 inches Hg (1012.6 mb)
[Sea-level pressure: 1012.2 mb]
Winds: from the S (170 degrees) at 5 MPH (4 knots; 2.1 m/s)
Visibility: 10 or more miles (16+ km)
Ceiling: at least 12,000 feet AGL
Clouds: sky clear below 12,000 feet AGL
Weather: automated observation with no human augmentation;
there may or may not be significant weather present at this time

METAR text: KSMO 200251Z 24004KT 10SM CLR 19/17 A2990 RMK AO2 SLP122 T01940172 55006
Conditions at: KSMO (SANTA MONICA , CA, US) observed 0251 UTC 20 August 2019
Temperature: 19.4°C (67°F)
Dewpoint: 17.2°C (63°F) [RH = 87%]
Pressure (altimeter): 29.90 inches Hg (1012.6 mb)
[Sea-level pressure: 1012.2 mb]
Winds: from the WSW (240 degrees) at 5 MPH (4 knots; 2.1 m/s)
Visibility: 10 or more miles (16+ km)
Ceiling: at least 12,000 feet AGL
Clouds: sky clear below 12,000 feet AGL
Weather: no significant weather observed at this time

METAR text: KSMO 200151Z 26005KT 10SM CLR 20/17 A2989 RMK AO2 SLP121 T02000172
Conditions at: KSMO (SANTA MONICA , CA, US) observed 0151 UTC 20 August 2019
Temperature: 20.0°C (68°F)
Dewpoint: 17.2°C (63°F) [RH = 84%]
Pressure (altimeter): 29.89 inches Hg (1012.3 mb)
[Sea-level pressure: 1012.1 mb]
Winds: from the W (260 degrees) at 6 MPH (5 knots; 2.6 m/s)
Visibility: 10 or more miles (16+ km)
Ceiling: at least 12,000 feet AGL
Clouds: sky clear below 12,000 feet AGL
Weather: no significant weather observed at this time

METAR text: KSMO 200051Z 25007KT 220V280 10SM CLR 21/17 A2990 RMK AO2 SLP122 T02060172
Conditions at: KSMO (SANTA MONICA , CA, US) observed 0051 UTC 20 August 2019
Temperature: 20.6°C (69°F)
Dewpoint: 17.2°C (63°F) [RH = 81%]
Pressure (altimeter): 29.90 inches Hg (1012.6 mb)
[Sea-level pressure: 1012.2 mb]
Winds: from the WSW (250 degrees) at 8 MPH (7 knots; 3.6 m/s)
Visibility: 10 or more miles (16+ km)
Ceiling: at least 12,000 feet AGL
Clouds: sky clear below 12,000 feet AGL
Weather: no significant weather observed at this time

METAR text: KSMO 192351Z 26008KT 10SM CLR 22/17 A2991 RMK AO2 SLP127 T02170172 10239 20211 56014
Conditions at: KSMO (SANTA MONICA , CA, US) observed 2351 UTC 19 August 2019
Temperature: 21.7°C (71°F)
Dewpoint: 17.2°C (63°F) [RH = 76%]
Pressure (altimeter): 29.91 inches Hg (1013.0 mb)
[Sea-level pressure: 1012.7 mb]
Winds: from the W (260 degrees) at 9 MPH (8 knots; 4.1 m/s)
Visibility: 10 or more miles (16+ km)
Ceiling: at least 12,000 feet AGL
Clouds: sky clear below 12,000 feet AGL
Weather: no significant weather observed at this time

METAR text: KSMO 192251Z 23009KT 10SM CLR 22/17 A2992 RMK AO2 SLP130 T02220172
Conditions at: KSMO (SANTA MONICA , CA, US) observed 2251 UTC 19 August 2019
Temperature: 22.2°C (72°F)
Dewpoint: 17.2°C (63°F) [RH = 73%]
Pressure (altimeter): 29.92 inches Hg (1013.3 mb)
[Sea-level pressure: 1013.0 mb]
Winds: from the SW (230 degrees) at 10 MPH (9 knots; 4.6 m/s)
Visibility: 10 or more miles (16+ km)
Ceiling: at least 12,000 feet AGL
Clouds: sky clear below 12,000 feet AGL
Weather: no significant weather observed at this time

METAR text: KSMO 192151Z 23011G16KT 10SM CLR 22/17 A2994 RMK AO2 SLP137 T02220172
Conditions at: KSMO (SANTA MONICA , CA, US) observed 2151 UTC 19 August 2019
Temperature: 22.2°C (72°F)
Dewpoint: 17.2°C (63°F) [RH = 73%]
Pressure (altimeter): 29.94 inches Hg (1014.0 mb)
[Sea-level pressure: 1013.7 mb]
Winds: from the SW (230 degrees) at 13 MPH (11 knots; 5.7 m/s)
gusting to 18 MPH (16 knots; 8.2 m/s)
Visibility: 10 or more miles (16+ km)
Ceiling: at least 12,000 feet AGL
Clouds: sky clear below 12,000 feet AGL
Weather: no significant weather observed at this time

METAR text: KSMO 192051Z 24007KT 9SM CLR 23/17 A2996 RMK AO2 SLP142 T02280167 57008
Conditions at: KSMO (SANTA MONICA , CA, US) observed 2051 UTC 19 August 2019
Temperature: 22.8°C (73°F)
Dewpoint: 16.7°C (62°F) [RH = 68%]
Pressure (altimeter): 29.96 inches Hg (1014.6 mb)
[Sea-level pressure: 1014.2 mb]
Winds: from the WSW (240 degrees) at 8 MPH (7 knots; 3.6 m/s)
Visibility: 9 miles (14 km)
Ceiling: at least 12,000 feet AGL
Clouds: sky clear below 12,000 feet AGL
Weather: no significant weather observed at this time

METAR text: KSMO 191951Z 24007KT 7SM CLR 23/17 A2996 RMK AO2 SLP145 T02330167
Conditions at: KSMO (SANTA MONICA , CA, US) observed 1951 UTC 19 August 2019
Temperature: 23.3°C (74°F)
Dewpoint: 16.7°C (62°F) [RH = 66%]
Pressure (altimeter): 29.96 inches Hg (1014.6 mb)
[Sea-level pressure: 1014.5 mb]
Winds: from the WSW (240 degrees) at 8 MPH (7 knots; 3.6 m/s)
Visibility: 7 miles (11 km)
Ceiling: at least 12,000 feet AGL
Clouds: sky clear below 12,000 feet AGL
Weather: no significant weather observed at this time

METAR text: KSMO 191851Z 22008KT 7SM CLR 23/17 A2997 RMK AO2 SLP148 T02280167
Conditions at: KSMO (SANTA MONICA , CA, US) observed 1851 UTC 19 August 2019
Temperature: 22.8°C (73°F)
Dewpoint: 16.7°C (62°F) [RH = 68%]
Pressure (altimeter): 29.97 inches Hg (1015.0 mb)
[Sea-level pressure: 1014.8 mb]
Winds: from the SW (220 degrees) at 9 MPH (8 knots; 4.1 m/s)
Visibility: 7 miles (11 km)
Ceiling: at least 12,000 feet AGL
Clouds: sky clear below 12,000 feet AGL
Weather: no significant weather observed at this time

METAR text: KSMO 191751Z 26003KT 9SM CLR 22/16 A2998 RMK AO2 SLP150 T02220161 10222 20183 53003
Conditions at: KSMO (SANTA MONICA , CA, US) observed 1751 UTC 19 August 2019
Temperature: 22.2°C (72°F)
Dewpoint: 16.1°C (61°F) [RH = 68%]
Pressure (altimeter): 29.98 inches Hg (1015.3 mb)
[Sea-level pressure: 1015.0 mb]
Winds: from the W (260 degrees) at 3 MPH (3 knots; 1.5 m/s)
Visibility: 9 miles (14 km)
Ceiling: at least 12,000 feet AGL
Clouds: sky clear below 12,000 feet AGL
Weather: no significant weather observed at this time

METAR text: KSMO 191726Z 00000KT 8SM SCT017 22/16 A2998 RMK AO2 T02170161
Conditions at: KSMO (SANTA MONICA , CA, US) observed 1726 UTC 19 August 2019
Temperature: 21.7°C (71°F)
Dewpoint: 16.1°C (61°F) [RH = 70%]
Pressure (altimeter): 29.98 inches Hg (1015.3 mb)
Winds: calm
Visibility: 8 miles (13 km)
Ceiling: at least 12,000 feet AGL
Clouds: scattered clouds at 1700 feet AGL
Weather: no significant weather observed at this time

METAR text: KSMO 191651Z VRB03KT 7SM OVC016 21/17 A2998 RMK AO2 SLP150 T02060167
Conditions at: KSMO (SANTA MONICA , CA, US) observed 1651 UTC 19 August 2019
Temperature: 20.6°C (69°F)
Dewpoint: 16.7°C (62°F) [RH = 78%]
Pressure (altimeter): 29.98 inches Hg (1015.3 mb)
[Sea-level pressure: 1015.0 mb]
Winds: variable direction winds at 3 MPH (3 knots; 1.5 m/s)
Visibility: 7 miles (11 km)
Ceiling: 1600 feet AGL
Clouds: overcast cloud deck at 1600 feet AGL
Weather: no significant weather observed at this time

METAR text: KSMO 191551Z 00000KT 7SM OVC014 19/16 A2997 RMK AO2 SLP147 T01940161
Conditions at: KSMO (SANTA MONICA , CA, US) observed 1551 UTC 19 August 2019
Temperature: 19.4°C (67°F)
Dewpoint: 16.1°C (61°F) [RH = 81%]
Pressure (altimeter): 29.97 inches Hg (1015.0 mb)
[Sea-level pressure: 1014.7 mb]
Winds: calm
Visibility: 7 miles (11 km)
Ceiling: 1400 feet AGL
Clouds: overcast cloud deck at 1400 feet AGL
Weather: no significant weather observed at this time

METAR text: KSMO 191451Z 18003KT 8SM OVC013 19/16 A2997 RMK AO2 SLP147 T01890161 51010
Conditions at: KSMO (SANTA MONICA , CA, US) observed 1451 UTC 19 August 2019
Temperature: 18.9°C (66°F)
Dewpoint: 16.1°C (61°F) [RH = 84%]
Pressure (altimeter): 29.97 inches Hg (1015.0 mb)
[Sea-level pressure: 1014.7 mb]
Winds: from the S (180 degrees) at 3 MPH (3 knots; 1.5 m/s)
Visibility: 8 miles (13 km)
Ceiling: 1300 feet AGL
Clouds: overcast cloud deck at 1300 feet AGL
Weather: no significant weather observed at this time

METAR text: KSMO 191351Z 00000KT 10SM OVC012 18/16 A2996 RMK AO2 SLP144 T01830161
Conditions at: KSMO (SANTA MONICA , CA, US) observed 1351 UTC 19 August 2019
Temperature: 18.3°C (65°F)
Dewpoint: 16.1°C (61°F) [RH = 87%]
Pressure (altimeter): 29.96 inches Hg (1014.6 mb)
[Sea-level pressure: 1014.4 mb]
Winds: calm
Visibility: 10 or more miles (16+ km)
Ceiling: 1200 feet AGL
Clouds: overcast cloud deck at 1200 feet AGL
Weather: no significant weather observed at this time

METAR text: KSMO 191251Z AUTO 00000KT 10SM OVC011 18/16 A2995 RMK AO2 SLP141 T01830161
Conditions at: KSMO (SANTA MONICA , CA, US) observed 1251 UTC 19 August 2019
Temperature: 18.3°C (65°F)
Dewpoint: 16.1°C (61°F) [RH = 87%]
Pressure (altimeter): 29.95 inches Hg (1014.3 mb)
[Sea-level pressure: 1014.1 mb]
Winds: calm
Visibility: 10 or more miles (16+ km)
Ceiling: 1100 feet AGL
Clouds: overcast cloud deck at 1100 feet AGL
Weather: automated observation with no human augmentation;
there may or may not be significant weather present at this time

METAR text: KSMO 191151Z AUTO 00000KT 10SM OVC011 18/16 A2994 RMK AO2 SLP137 T01830161 10183 20172 52006
Conditions at: KSMO (SANTA MONICA , CA, US) observed 1151 UTC 19 August 2019
Temperature: 18.3°C (65°F)
Dewpoint: 16.1°C (61°F) [RH = 87%]
Pressure (altimeter): 29.94 inches Hg (1014.0 mb)
[Sea-level pressure: 1013.7 mb]
Winds: calm
Visibility: 10 or more miles (16+ km)
Ceiling: 1100 feet AGL
Clouds: overcast cloud deck at 1100 feet AGL
Weather: automated observation with no human augmentation;
there may or may not be significant weather present at this time

METAR text: KSMO 191051Z AUTO 23004KT 10SM OVC010 18/17 A2994 RMK AO2 SLP135 T01830167
Conditions at: KSMO (SANTA MONICA , CA, US) observed 1051 UTC 19 August 2019
Temperature: 18.3°C (65°F)
Dewpoint: 16.7°C (62°F) [RH = 90%]
Pressure (altimeter): 29.94 inches Hg (1014.0 mb)
[Sea-level pressure: 1013.5 mb]
Winds: from the SW (230 degrees) at 5 MPH (4 knots; 2.1 m/s)
Visibility: 10 or more miles (16+ km)
Ceiling: 1000 feet AGL
Clouds: overcast cloud deck at 1000 feet AGL
Weather: automated observation with no human augmentation;
there may or may not be significant weather present at this time

METAR text: KSMO 190951Z AUTO 20003KT 10SM OVC010 18/17 A2993 RMK AO2 SLP132 T01830167
Conditions at: KSMO (SANTA MONICA , CA, US) observed 0951 UTC 19 August 2019
Temperature: 18.3°C (65°F)
Dewpoint: 16.7°C (62°F) [RH = 90%]
Pressure (altimeter): 29.93 inches Hg (1013.6 mb)
[Sea-level pressure: 1013.2 mb]
Winds: from the SSW (200 degrees) at 3 MPH (3 knots; 1.5 m/s)
Visibility: 10 or more miles (16+ km)
Ceiling: 1000 feet AGL
Clouds: overcast cloud deck at 1000 feet AGL
Weather: automated observation with no human augmentation;
there may or may not be significant weather present at this time

METAR text: KSMO 190913Z AUTO 21003KT 10SM OVC010 18/17 A2992 RMK AO2 T01830167
Conditions at: KSMO (SANTA MONICA , CA, US) observed 0913 UTC 19 August 2019
Temperature: 18.3°C (65°F)
Dewpoint: 16.7°C (62°F) [RH = 90%]
Pressure (altimeter): 29.92 inches Hg (1013.3 mb)
Winds: from the SSW (210 degrees) at 3 MPH (3 knots; 1.5 m/s)
Visibility: 10 or more miles (16+ km)
Ceiling: 1000 feet AGL
Clouds: overcast cloud deck at 1000 feet AGL
Weather: automated observation with no human augmentation;
there may or may not be significant weather present at this time

METAR text: KSMO 190851Z AUTO 00000KT 10SM BKN009 18/17 A2992 RMK AO2 SLP130 T01830167 51003
Conditions at: KSMO (SANTA MONICA , CA, US) observed 0851 UTC 19 August 2019
Temperature: 18.3°C (65°F)
Dewpoint: 16.7°C (62°F) [RH = 90%]
Pressure (altimeter): 29.92 inches Hg (1013.3 mb)
[Sea-level pressure: 1013.0 mb]
Winds: calm
Visibility: 10 or more miles (16+ km)
Ceiling: 900 feet AGL
Clouds: broken clouds at 900 feet AGL
Weather: automated observation with no human augmentation;
there may or may not be significant weather present at this time

METAR text: KSMO 190847Z AUTO 19003KT 10SM BKN009 18/17 A2992 RMK AO2
Conditions at: KSMO (SANTA MONICA , CA, US) observed 0847 UTC 19 August 2019
Temperature: 18.0°C (64°F)
Dewpoint: 17.0°C (63°F) [RH = 94%]
Pressure (altimeter): 29.92 inches Hg (1013.3 mb)
Winds: from the S (190 degrees) at 3 MPH (3 knots; 1.5 m/s)
Visibility: 10 or more miles (16+ km)
Ceiling: 900 feet AGL
Clouds: broken clouds at 900 feet AGL
Weather: automated observation with no human augmentation;
there may or may not be significant weather present at this time

METAR text: KSMO 190834Z AUTO 18004KT 10SM FEW009 18/17 A2992 RMK AO2 T01830167
Conditions at: KSMO (SANTA MONICA , CA, US) observed 0834 UTC 19 August 2019
Temperature: 18.3°C (65°F)
Dewpoint: 16.7°C (62°F) [RH = 90%]
Pressure (altimeter): 29.92 inches Hg (1013.3 mb)
Winds: from the S (180 degrees) at 5 MPH (4 knots; 2.1 m/s)
Visibility: 10 or more miles (16+ km)
Ceiling: at least 12,000 feet AGL
Clouds: few clouds at 900 feet AGL
Weather: automated observation with no human augmentation;
there may or may not be significant weather present at this time

Forecast for: KSMO (SANTA MONICA , CA, US)
Text: KSMO 201729Z 2018/2118 00000KT P6SM SKC
Forecast period: 1800 to 1900 UTC 20 August 2019
Forecast type: FROM: standard forecast or significant change
Winds: calm
Visibility: 6 or more miles 10+ km)
Clouds: clear skies
Weather: no significant weather forecast for this period
Text: FM201900 24008KT P6SM SKC
Forecast period: 1900 UTC 20 August 2019 to 0300 UTC 21 August 2019
Forecast type: FROM: standard forecast or significant change
Winds: from the WSW (240 degrees) at 9 MPH (8 knots; 4.1 m/s)
Visibility: 6 or more miles 10+ km)
Clouds: clear skies
Weather: no significant weather forecast for this period
Text: FM210300 VRB03KT P6SM SKC
Forecast period: 0300 to 1200 UTC 21 August 2019
Forecast type: FROM: standard forecast or significant change
Winds: variable direction winds at 3 MPH (3 knots; 1.5 m/s)
Visibility: 6 or more miles 10+ km)
Clouds: clear skies
Weather: no significant weather forecast for this period
Text: FM211200 VRB03KT P6SM BKN010
Forecast period: 1200 to 1800 UTC 21 August 2019
Forecast type: FROM: standard forecast or significant change
Winds: variable direction winds at 3 MPH (3 knots; 1.5 m/s)
Visibility: 6 or more miles 10+ km)
Ceiling: 1000 feet AGL
Clouds: broken clouds at 1000 feet AGL
Weather: no significant weather forecast for this period